createdAt,value
2023-05-22T00:00:54.842Z,933.85
2023-05-22T00:01:55.349Z,933.81
2023-05-22T00:02:56.490Z,933.84
2023-05-22T00:03:56.628Z,933.84
2023-05-22T00:04:56.993Z,933.82
2023-05-22T00:05:57.548Z,933.77
2023-05-22T00:06:58.045Z,933.83
2023-05-22T00:07:59.096Z,933.83
2023-05-22T00:08:59.564Z,933.82
2023-05-22T00:10:00.458Z,933.8
2023-05-22T00:11:01.397Z,933.84
2023-05-22T00:12:02.079Z,933.84
2023-05-22T00:13:02.565Z,933.82
2023-05-22T00:14:03.291Z,933.84
2023-05-22T00:15:03.603Z,933.84
2023-05-22T00:16:04.299Z,933.83
2023-05-22T00:17:04.966Z,933.82
2023-05-22T00:18:05.871Z,933.8
2023-05-22T00:19:06.197Z,933.77
2023-05-22T00:20:06.891Z,933.78
2023-05-22T00:21:07.236Z,933.78
2023-05-22T00:22:08.125Z,933.79
2023-05-22T00:23:08.281Z,933.74
2023-05-22T00:24:09.056Z,933.76
2023-05-22T00:25:09.353Z,933.73
2023-05-22T00:26:09.855Z,933.71
2023-05-22T00:27:10.320Z,933.73
2023-05-22T00:28:10.877Z,933.74
2023-05-22T00:29:11.386Z,933.76
2023-05-22T00:30:11.878Z,933.72
2023-05-22T00:31:12.195Z,933.73
2023-05-22T00:32:12.887Z,933.74
2023-05-22T00:33:13.473Z,933.71
2023-05-22T00:34:14.183Z,933.7
2023-05-22T00:35:14.478Z,933.67
2023-05-22T00:36:15.575Z,933.71
2023-05-22T00:37:16.288Z,933.67
2023-05-22T00:38:16.486Z,933.64
2023-05-22T00:39:17.494Z,933.63
2023-05-22T00:40:18.013Z,933.69
2023-05-22T00:41:18.116Z,933.65
2023-05-22T00:42:18.412Z,933.7
2023-05-22T00:43:19.115Z,933.67
2023-05-22T00:44:19.934Z,933.75
2023-05-22T00:45:20.611Z,933.7
2023-05-22T00:46:21.738Z,933.69
2023-05-22T00:47:22.455Z,933.7
2023-05-22T00:48:23.085Z,933.7
2023-05-22T00:49:23.196Z,933.68
2023-05-22T00:50:24.059Z,933.67
2023-05-22T00:51:25.019Z,933.65
2023-05-22T00:52:25.530Z,933.68
2023-05-22T00:53:26.469Z,933.65
2023-05-22T00:54:26.954Z,933.66
2023-05-22T00:55:27.966Z,933.65
2023-05-22T00:56:28.479Z,933.65
2023-05-22T00:57:29.389Z,933.66
2023-05-22T00:58:29.988Z,933.64
2023-05-22T00:59:30.911Z,933.64
2023-05-22T01:00:31.885Z,933.65
2023-05-22T01:01:32.322Z,933.64
2023-05-22T01:02:33.162Z,933.63
2023-05-22T01:03:33.831Z,933.65
2023-05-22T01:04:34.485Z,933.65
2023-05-22T01:05:35.394Z,933.63
2023-05-22T01:06:36.123Z,933.67
2023-05-22T01:07:36.854Z,933.7
2023-05-22T01:08:37.816Z,933.66
2023-05-22T01:09:38.495Z,933.68
2023-05-22T01:10:39.342Z,933.72
2023-05-22T01:11:39.305Z,933.71
2023-05-22T01:12:40.005Z,933.73
2023-05-22T01:13:40.705Z,933.73
2023-05-22T01:14:41.456Z,933.73
2023-05-22T01:15:42.160Z,933.65
2023-05-22T01:16:42.269Z,933.66
2023-05-22T01:17:42.630Z,933.68
2023-05-22T01:18:43.566Z,933.7
2023-05-22T01:19:44.518Z,933.69
2023-05-22T01:20:46.571Z,933.69
2023-05-22T01:21:45.386Z,933.75
2023-05-22T01:22:45.672Z,933.72
2023-05-22T01:23:46.628Z,933.73
2023-05-22T01:24:47.132Z,933.75
2023-05-22T01:25:47.860Z,933.74
2023-05-22T01:26:48.962Z,933.77
2023-05-22T01:27:49.504Z,933.78
2023-05-22T01:28:50.509Z,933.82
2023-05-22T01:29:51.416Z,933.83
2023-05-22T01:30:52.326Z,933.85
2023-05-22T01:31:52.791Z,933.88
2023-05-22T01:32:53.530Z,933.85
2023-05-22T01:33:54.031Z,933.83
2023-05-22T01:34:54.082Z,933.83
2023-05-22T01:35:54.997Z,933.85
2023-05-22T01:36:55.097Z,933.83
2023-05-22T01:37:56.181Z,933.89
2023-05-22T01:38:56.702Z,933.86
2023-05-22T01:39:57.405Z,933.92
2023-05-22T01:40:58.378Z,933.88
2023-05-22T01:41:59.290Z,933.91
2023-05-22T01:42:59.992Z,933.9
2023-05-22T01:44:00.915Z,933.94
2023-05-22T01:45:01.542Z,933.93
2023-05-22T01:46:02.148Z,933.96
2023-05-22T01:47:02.899Z,933.96
2023-05-22T01:48:03.900Z,933.97
2023-05-22T01:49:04.978Z,933.97
2023-05-22T01:50:05.657Z,934.03
2023-05-22T01:51:06.051Z,933.99
2023-05-22T01:52:06.737Z,934.07
2023-05-22T01:53:07.347Z,934.03
2023-05-22T01:54:07.921Z,934.04
2023-05-22T01:55:08.393Z,934.06
2023-05-22T01:56:09.180Z,934.08
2023-05-22T01:57:09.888Z,934.07
2023-05-22T01:58:10.550Z,934.07
2023-05-22T01:59:11.218Z,934.1
2023-05-22T02:00:12.122Z,934.11
2023-05-22T02:01:12.570Z,934.1
2023-05-22T02:02:13.327Z,934.11
2023-05-22T02:03:14.102Z,934.11
2023-05-22T02:04:14.800Z,934.11
2023-05-22T02:05:15.293Z,934.11
2023-05-22T02:06:15.834Z,934.15
2023-05-22T02:07:16.330Z,934.13
2023-05-22T02:08:17.218Z,934.11
2023-05-22T02:09:17.900Z,934.09
2023-05-22T02:10:18.786Z,934.12
2023-05-22T02:11:19.507Z,934.13
2023-05-22T02:12:19.995Z,934.09
2023-05-22T02:13:20.720Z,934.11
2023-05-22T02:14:21.646Z,934.15
2023-05-22T02:15:22.555Z,934.14
2023-05-22T02:16:23.590Z,934.12
2023-05-22T02:17:24.554Z,934.09
2023-05-22T02:18:25.262Z,934.13
2023-05-22T02:19:25.579Z,934.13
2023-05-22T02:20:26.077Z,934.19
2023-05-22T02:21:26.663Z,934.14
2023-05-22T02:22:27.335Z,934.2
2023-05-22T02:23:27.857Z,934.17
2023-05-22T02:24:28.774Z,934.18
2023-05-22T02:25:29.674Z,934.18
2023-05-22T02:26:30.397Z,934.18
2023-05-22T02:27:31.492Z,934.19
2023-05-22T02:28:32.116Z,934.18
2023-05-22T02:29:32.399Z,934.17
2023-05-22T02:30:32.835Z,934.17
2023-05-22T02:31:33.414Z,934.21
2023-05-22T02:32:34.277Z,934.17
2023-05-22T02:33:34.368Z,934.15
2023-05-22T02:34:35.129Z,934.15
2023-05-22T02:35:35.611Z,934.12
2023-05-22T02:36:35.928Z,934.11
2023-05-22T02:37:36.659Z,934.15
2023-05-22T02:38:37.371Z,934.15
2023-05-22T02:39:37.658Z,934.14
2023-05-22T02:40:38.720Z,934.16
2023-05-22T02:41:38.951Z,934.16
2023-05-22T02:42:39.627Z,934.15
2023-05-22T02:43:40.514Z,934.17
2023-05-22T02:44:41.006Z,934.16
2023-05-22T02:45:41.996Z,934.19
2023-05-22T02:46:42.499Z,934.2
2023-05-22T02:47:43.287Z,934.28
2023-05-22T02:48:44.139Z,934.24
2023-05-22T02:49:44.371Z,934.31
2023-05-22T02:50:45.102Z,934.28
2023-05-22T02:51:45.632Z,934.33
2023-05-22T02:52:46.112Z,934.31
2023-05-22T02:53:46.831Z,934.32
2023-05-22T02:54:46.980Z,934.33
2023-05-22T02:55:47.559Z,934.3
2023-05-22T02:56:48.341Z,934.34
2023-05-22T02:57:48.839Z,934.32
2023-05-22T02:58:49.134Z,934.33
2023-05-22T02:59:50.060Z,934.32
2023-05-22T03:00:50.817Z,934.35
2023-05-22T03:01:51.744Z,934.38
2023-05-22T03:02:52.663Z,934.38
2023-05-22T03:03:53.164Z,934.35
2023-05-22T03:04:53.535Z,934.38
2023-05-22T03:05:53.625Z,934.36
2023-05-22T03:06:54.329Z,934.38
2023-05-22T03:07:55.109Z,934.37
2023-05-22T03:08:56.004Z,934.36
2023-05-22T03:09:56.852Z,934.37
2023-05-22T03:10:57.673Z,934.37
2023-05-22T03:11:57.816Z,934.36
2023-05-22T03:12:58.526Z,934.37
2023-05-22T03:13:59.196Z,934.35
2023-05-22T03:14:59.863Z,934.36
2023-05-22T03:16:00.916Z,934.37
2023-05-22T03:17:01.074Z,934.38
2023-05-22T03:18:01.773Z,934.4
2023-05-22T03:19:02.002Z,934.37
2023-05-22T03:20:02.811Z,934.4
2023-05-22T03:21:03.557Z,934.38
2023-05-22T03:22:04.250Z,934.38
2023-05-22T03:23:04.720Z,934.36
2023-05-22T03:24:05.593Z,934.39
2023-05-22T03:25:06.348Z,934.39
2023-05-22T03:26:07.428Z,934.38
2023-05-22T03:27:08.167Z,934.4
2023-05-22T03:28:08.664Z,934.41
2023-05-22T03:29:09.191Z,934.38
2023-05-22T03:30:09.406Z,934.38
2023-05-22T03:31:10.344Z,934.39
2023-05-22T03:32:11.250Z,934.38
2023-05-22T03:33:12.245Z,934.39
2023-05-22T03:34:12.462Z,934.36
2023-05-22T03:35:13.236Z,934.34
2023-05-22T03:36:13.923Z,934.37
2023-05-22T03:37:14.820Z,934.37
2023-05-22T03:38:15.552Z,934.37
2023-05-22T03:39:16.314Z,934.38
2023-05-22T03:40:17.148Z,934.36
2023-05-22T03:41:18.033Z,934.39
2023-05-22T03:42:18.829Z,934.37
2023-05-22T03:43:19.546Z,934.35
2023-05-22T03:44:20.031Z,934.37
2023-05-22T03:45:20.543Z,934.36
2023-05-22T03:46:21.637Z,934.36
2023-05-22T03:47:21.814Z,934.37
2023-05-22T03:48:22.752Z,934.37
2023-05-22T03:49:23.031Z,934.36
2023-05-22T03:50:23.360Z,934.35
2023-05-22T03:51:23.679Z,934.34
2023-05-22T03:52:24.453Z,934.32
2023-05-22T03:53:24.741Z,934.34
2023-05-22T03:54:25.217Z,934.33
2023-05-22T03:55:26.121Z,934.36
2023-05-22T03:56:26.443Z,934.34
2023-05-22T03:57:27.141Z,934.33
2023-05-22T03:58:27.842Z,934.33
2023-05-22T03:59:28.349Z,934.39
2023-05-22T04:00:28.556Z,934.39
2023-05-22T04:01:29.539Z,934.43
2023-05-22T04:02:30.146Z,934.42
2023-05-22T04:03:30.517Z,934.43
2023-05-22T04:04:31.271Z,934.45
2023-05-22T04:05:32.032Z,934.45
2023-05-22T04:06:31.986Z,934.47
2023-05-22T04:07:32.334Z,934.45
2023-05-22T04:08:32.640Z,934.49
2023-05-22T04:09:33.136Z,934.47
2023-05-22T04:10:33.699Z,934.48
2023-05-22T04:11:33.879Z,934.49
2023-05-22T04:12:34.654Z,934.48
2023-05-22T04:13:34.953Z,934.48
2023-05-22T04:14:35.823Z,934.48
2023-05-22T04:15:36.244Z,934.52
2023-05-22T04:16:37.296Z,934.5
2023-05-22T04:17:38.363Z,934.46
2023-05-22T04:18:39.086Z,934.5
2023-05-22T04:19:39.917Z,934.49
2023-05-22T04:20:40.790Z,934.5
2023-05-22T04:21:41.491Z,934.5
2023-05-22T04:22:41.764Z,934.53
2023-05-22T04:23:42.453Z,934.57
2023-05-22T04:24:43.343Z,934.57
2023-05-22T04:25:43.454Z,934.6
2023-05-22T04:26:43.957Z,934.66
2023-05-22T04:27:44.683Z,934.64
2023-05-22T04:28:45.368Z,934.65
2023-05-22T04:29:46.053Z,934.69
2023-05-22T04:30:46.409Z,934.69
2023-05-22T04:31:46.586Z,934.66
2023-05-22T04:32:47.328Z,934.72
2023-05-22T04:33:48.107Z,934.71
2023-05-22T04:34:48.612Z,934.71
2023-05-22T04:35:49.364Z,934.73
2023-05-22T04:36:50.092Z,934.73
2023-05-22T04:37:50.630Z,934.71
2023-05-22T04:38:51.555Z,934.74
2023-05-22T04:39:52.451Z,934.74
2023-05-22T04:40:52.610Z,934.68
2023-05-22T04:41:52.978Z,934.76
2023-05-22T04:42:53.104Z,934.72
2023-05-22T04:43:53.818Z,934.72
2023-05-22T04:44:54.727Z,934.74
2023-05-22T04:45:55.267Z,934.73
2023-05-22T04:46:56.029Z,934.79
2023-05-22T04:47:56.703Z,934.77
2023-05-22T04:48:57.094Z,934.8
2023-05-22T04:49:57.823Z,934.76
2023-05-22T04:50:58.061Z,934.8
2023-05-22T04:51:58.349Z,934.82
2023-05-22T04:52:59.241Z,934.82
2023-05-22T04:54:00.069Z,934.85
2023-05-22T04:55:01.526Z,934.85
2023-05-22T04:56:01.170Z,934.86
2023-05-22T04:57:01.277Z,934.87
2023-05-22T04:58:01.976Z,934.88
2023-05-22T04:59:02.689Z,934.9
2023-05-22T05:00:02.867Z,934.92
2023-05-22T05:01:03.724Z,934.94
2023-05-22T05:02:03.890Z,934.91
2023-05-22T05:03:04.553Z,934.92
2023-05-22T05:04:04.771Z,934.93
2023-05-22T05:05:05.688Z,934.93
2023-05-22T05:06:05.924Z,934.97
2023-05-22T05:07:06.420Z,934.99
2023-05-22T05:08:06.752Z,934.97
2023-05-22T05:09:07.036Z,935
2023-05-22T05:10:07.938Z,934.99
2023-05-22T05:11:08.565Z,935.02
2023-05-22T05:12:09.354Z,934.98
2023-05-22T05:13:10.310Z,934.98
2023-05-22T05:14:10.809Z,934.98
2023-05-22T05:15:11.096Z,935.01
2023-05-22T05:16:11.212Z,934.99
2023-05-22T05:17:12.256Z,934.97
2023-05-22T05:18:12.981Z,935
2023-05-22T05:19:13.838Z,935
2023-05-22T05:20:14.806Z,935.02
2023-05-22T05:21:15.564Z,935.01
2023-05-22T05:22:15.658Z,934.96
2023-05-22T05:23:16.432Z,934.97
2023-05-22T05:24:17.136Z,934.97
2023-05-22T05:25:17.609Z,934.97
2023-05-22T05:26:18.698Z,934.96
2023-05-22T05:27:19.449Z,934.96
2023-05-22T05:28:19.993Z,934.94
2023-05-22T05:29:20.512Z,934.95
2023-05-22T05:30:21.503Z,934.96
2023-05-22T05:31:22.114Z,934.91
2023-05-22T05:32:22.260Z,934.96
2023-05-22T05:33:22.283Z,934.89
2023-05-22T05:34:23.007Z,934.94
2023-05-22T05:35:23.274Z,934.94
2023-05-22T05:36:24.393Z,934.93
2023-05-22T05:37:25.429Z,934.96
2023-05-22T05:38:25.716Z,934.97
2023-05-22T05:39:26.429Z,934.95
2023-05-22T05:40:26.960Z,934.92
2023-05-22T05:41:27.216Z,934.96
2023-05-22T05:42:27.687Z,934.97
2023-05-22T05:43:28.580Z,934.94
2023-05-22T05:44:28.879Z,934.97
2023-05-22T05:45:29.612Z,934.9
2023-05-22T05:46:30.169Z,934.95
2023-05-22T05:47:30.721Z,934.92
2023-05-22T05:48:31.344Z,934.91
2023-05-22T05:49:32.730Z,934.9
2023-05-22T05:50:32.098Z,934.9
2023-05-22T05:51:33.083Z,934.91
2023-05-22T05:52:33.920Z,934.94
2023-05-22T05:53:34.639Z,934.96
2023-05-22T05:54:35.146Z,934.91
2023-05-22T05:55:35.850Z,934.92
2023-05-22T05:56:36.873Z,934.93
2023-05-22T05:57:37.784Z,934.98
2023-05-22T05:58:38.770Z,934.97
2023-05-22T05:59:39.640Z,934.99
2023-05-22T06:00:40.774Z,934.98
2023-05-22T06:01:41.104Z,935
2023-05-22T06:02:41.676Z,935.05
2023-05-22T06:03:41.870Z,935.06
2023-05-22T06:04:42.220Z,935.07
2023-05-22T06:05:42.749Z,935.05
2023-05-22T06:06:42.965Z,935.07
2023-05-22T06:07:43.448Z,935.05
2023-05-22T06:08:44.135Z,935.06
2023-05-22T06:09:44.452Z,935.05
2023-05-22T06:10:44.980Z,935.03
2023-05-22T06:11:45.537Z,935.04
2023-05-22T06:12:46.024Z,935.06
2023-05-22T06:13:46.734Z,935.06
2023-05-22T06:14:47.272Z,935.1
2023-05-22T06:15:47.789Z,935.06
2023-05-22T06:16:48.906Z,935.07
2023-05-22T06:17:49.361Z,935.05
2023-05-22T06:18:50.122Z,935.06
2023-05-22T06:19:50.847Z,935.1
2023-05-22T06:20:51.755Z,935.1
2023-05-22T06:21:52.361Z,935.09
2023-05-22T06:22:53.289Z,935.12
2023-05-22T06:23:54.209Z,935.13
2023-05-22T06:24:54.713Z,935.14
2023-05-22T06:25:55.726Z,935.12
2023-05-22T06:26:56.286Z,935.14
2023-05-22T06:27:57.011Z,935.12
2023-05-22T06:28:57.125Z,935.11
2023-05-22T06:29:57.275Z,935.13
2023-05-22T06:30:57.815Z,935.13
2023-05-22T06:31:58.265Z,935.1
2023-05-22T06:32:58.699Z,935.12
2023-05-22T06:33:59.817Z,935.08
2023-05-22T06:34:59.928Z,935.13
2023-05-22T06:36:00.429Z,935.11
2023-05-22T06:37:01.002Z,935.12
2023-05-22T06:38:01.142Z,935.07
2023-05-22T06:39:01.638Z,935.06
2023-05-22T06:40:02.335Z,935.08
2023-05-22T06:41:03.245Z,935.08
2023-05-22T06:42:04.173Z,935.07
2023-05-22T06:43:05.139Z,935.06
2023-05-22T06:44:06.086Z,935.05
2023-05-22T06:45:06.830Z,935.06
2023-05-22T06:46:07.596Z,935.04
2023-05-22T06:47:07.757Z,935.06
2023-05-22T06:48:08.382Z,935.08
2023-05-22T06:49:09.316Z,935.1
2023-05-22T06:50:09.642Z,935.05
2023-05-22T06:51:10.116Z,935.06
2023-05-22T06:52:11.213Z,935.06
2023-05-22T06:53:11.984Z,935.07
2023-05-22T06:54:12.884Z,935.07
2023-05-22T06:55:13.188Z,935.08
2023-05-22T06:56:13.319Z,935.07
2023-05-22T06:57:14.069Z,935.07
2023-05-22T06:58:14.571Z,935.06
2023-05-22T06:59:15.263Z,935.05
2023-05-22T07:00:16.190Z,935.08
2023-05-22T07:01:16.684Z,935.09
2023-05-22T07:02:16.875Z,935.1
2023-05-22T07:03:17.165Z,935.08
2023-05-22T07:04:17.286Z,935.1
2023-05-22T07:05:18.080Z,935.09
2023-05-22T07:06:18.479Z,935.12
2023-05-22T07:07:19.765Z,935.07
2023-05-22T07:08:19.721Z,935.12
2023-05-22T07:09:20.058Z,935.06
2023-05-22T07:10:20.998Z,935.06
2023-05-22T07:11:21.502Z,935.07
2023-05-22T07:12:22.581Z,935.07
2023-05-22T07:13:22.729Z,935.11
2023-05-22T07:14:23.645Z,935.12
2023-05-22T07:15:24.571Z,935.13
2023-05-22T07:16:24.803Z,935.12
2023-05-22T07:17:25.088Z,935.16
2023-05-22T07:18:25.560Z,935.12
2023-05-22T07:19:26.529Z,935.11
2023-05-22T07:20:26.729Z,935.15
2023-05-22T07:21:27.817Z,935.14
2023-05-22T07:22:28.542Z,935.21
2023-05-22T07:23:29.311Z,935.18
2023-05-22T07:24:30.018Z,935.19
2023-05-22T07:25:30.195Z,935.24
2023-05-22T07:26:30.673Z,935.2
2023-05-22T07:27:31.712Z,935.22
2023-05-22T07:28:32.290Z,935.21
2023-05-22T07:29:33.220Z,935.19
2023-05-22T07:30:33.932Z,935.23
2023-05-22T07:31:34.493Z,935.19
2023-05-22T07:32:34.533Z,935.22
2023-05-22T07:33:34.831Z,935.2
2023-05-22T07:34:35.896Z,935.22
2023-05-22T07:35:36.943Z,935.22
2023-05-22T07:36:37.130Z,935.21
2023-05-22T07:37:38.071Z,935.25
2023-05-22T07:38:38.358Z,935.21
2023-05-22T07:39:38.847Z,935.22
2023-05-22T07:40:39.182Z,935.24
2023-05-22T07:41:39.981Z,935.2
2023-05-22T07:42:40.596Z,935.17
2023-05-22T07:43:41.513Z,935.22
2023-05-22T07:44:42.444Z,935.21
2023-05-22T07:45:43.363Z,935.28
2023-05-22T07:46:44.526Z,935.32
2023-05-22T07:47:44.666Z,935.28
2023-05-22T07:48:45.354Z,935.28
2023-05-22T07:49:46.330Z,935.29
2023-05-22T07:50:47.290Z,935.37
2023-05-22T07:51:48.019Z,935.34
2023-05-22T07:52:48.994Z,935.32
2023-05-22T07:53:49.808Z,935.32
2023-05-22T07:54:50.676Z,935.26
2023-05-22T07:55:51.619Z,935.29
2023-05-22T07:56:52.660Z,935.3
2023-05-22T07:57:53.146Z,935.28
2023-05-22T07:58:53.647Z,935.26
2023-05-22T07:59:53.872Z,935.23
2023-05-22T08:00:54.742Z,935.23
2023-05-22T08:01:57.983Z,935.23
2023-05-22T08:02:56.144Z,935.23
2023-05-22T08:03:57.136Z,935.22
2023-05-22T08:04:57.195Z,935.23
2023-05-22T08:05:57.410Z,935.26
2023-05-22T08:06:57.578Z,935.22
2023-05-22T08:07:58.915Z,935.24
2023-05-22T08:08:58.776Z,935.22
2023-05-22T08:09:59.770Z,935.25
2023-05-22T08:11:03.603Z,935.23
2023-05-22T08:12:01.318Z,935.22
2023-05-22T08:13:01.624Z,935.17
2023-05-22T08:14:02.452Z,935.16
2023-05-22T08:15:03.494Z,935.19
2023-05-22T08:16:04.577Z,935.17
2023-05-22T08:17:04.766Z,935.18
2023-05-22T08:18:05.225Z,935.19
2023-05-22T08:19:05.513Z,935.17
2023-05-22T08:20:06.137Z,935.2
2023-05-22T08:21:06.889Z,935.26
2023-05-22T08:22:07.518Z,935.18
2023-05-22T08:23:08.786Z,935.2
2023-05-22T08:24:08.933Z,935.26
2023-05-22T08:25:09.842Z,935.22
2023-05-22T08:26:10.753Z,935.26
2023-05-22T08:27:11.446Z,935.28
2023-05-22T08:28:12.206Z,935.25
2023-05-22T08:29:12.936Z,935.25
2023-05-22T08:30:13.274Z,935.25
2023-05-22T08:31:14.248Z,935.18
2023-05-22T08:32:14.770Z,935.18
2023-05-22T08:33:15.887Z,935.18
2023-05-22T08:34:16.795Z,935.13
2023-05-22T08:35:17.023Z,935.09
2023-05-22T08:36:17.801Z,935.08
2023-05-22T08:37:18.894Z,935.14
2023-05-22T08:38:19.114Z,935.12
2023-05-22T08:39:20.112Z,935.11
2023-05-22T08:40:20.302Z,935.11
2023-05-22T08:41:21.102Z,935.12
2023-05-22T08:42:22.196Z,935.11
2023-05-22T08:43:22.355Z,935.06
2023-05-22T08:44:22.459Z,935.1
2023-05-22T08:45:23.517Z,935.12
2023-05-22T08:46:24.488Z,935.12
2023-05-22T08:47:24.800Z,935.09
2023-05-22T08:48:24.981Z,935.09
2023-05-22T08:49:25.248Z,935.08
2023-05-22T08:50:25.506Z,935.07
2023-05-22T08:51:25.877Z,935.05
2023-05-22T08:52:26.108Z,935.03
2023-05-22T08:53:26.604Z,935.07
2023-05-22T08:54:27.367Z,935.09
2023-05-22T08:55:28.112Z,935.01
2023-05-22T08:56:29.713Z,935.02
2023-05-22T08:57:29.380Z,935.06
2023-05-22T08:58:30.472Z,935.1
2023-05-22T08:59:31.168Z,935.06
2023-05-22T09:00:31.737Z,935.06
2023-05-22T09:01:32.489Z,935.07
2023-05-22T09:02:33.110Z,935.1
2023-05-22T09:03:33.770Z,935.15
2023-05-22T09:04:33.943Z,935.13
2023-05-22T09:05:34.871Z,935.09
2023-05-22T09:06:35.009Z,935.11
2023-05-22T09:07:35.845Z,935.12
2023-05-22T09:08:36.389Z,935.1
2023-05-22T09:09:36.922Z,935.14
2023-05-22T09:10:37.267Z,935.11
2023-05-22T09:11:37.664Z,935.1
2023-05-22T09:12:38.466Z,935.05
2023-05-22T09:13:38.878Z,935.05
2023-05-22T09:14:38.974Z,935.06
2023-05-22T09:15:39.955Z,935.06
2023-05-22T09:16:40.690Z,935.07
2023-05-22T09:17:41.106Z,935.09
2023-05-22T09:18:41.728Z,935.1
2023-05-22T09:19:41.968Z,935.01
2023-05-22T09:20:42.353Z,935.05
2023-05-22T09:21:43.296Z,935.07
2023-05-22T09:22:42.769Z,935.07
2023-05-22T09:23:43.602Z,935.05
2023-05-22T09:24:44.443Z,935.06
2023-05-22T09:25:45.060Z,935.03
2023-05-22T09:26:46.048Z,935.07
2023-05-22T09:27:46.270Z,935.09
2023-05-22T09:28:47.333Z,935.07
2023-05-22T09:29:47.450Z,935.07
2023-05-22T09:30:48.359Z,935.06
2023-05-22T09:31:49.325Z,935.06
2023-05-22T09:32:49.722Z,935.05
2023-05-22T09:33:49.886Z,935.03
2023-05-22T09:34:50.732Z,935.05
2023-05-22T09:35:51.082Z,935.04
2023-05-22T09:36:51.877Z,935.02
2023-05-22T09:37:52.707Z,935.04
2023-05-22T09:38:53.399Z,935.07
2023-05-22T09:39:53.794Z,935.11
2023-05-22T09:40:54.002Z,935.1
2023-05-22T09:41:54.187Z,935.07
2023-05-22T09:42:55.090Z,935.1
2023-05-22T09:43:55.505Z,935.12
2023-05-22T09:44:55.837Z,935.12
2023-05-22T09:45:56.645Z,935.13
2023-05-22T09:46:56.944Z,935.11
2023-05-22T09:47:57.919Z,935.12
2023-05-22T09:48:58.206Z,935.13
2023-05-22T09:49:58.536Z,935.11
2023-05-22T09:50:59.608Z,935.12
2023-05-22T09:51:59.805Z,935.11
2023-05-22T09:53:00.341Z,935.08
2023-05-22T09:54:01.316Z,935.11
2023-05-22T09:55:01.493Z,935.11
2023-05-22T09:56:01.882Z,935.12
2023-05-22T09:57:02.819Z,935.13
2023-05-22T09:58:03.625Z,935.11
2023-05-22T09:59:04.034Z,935.1
2023-05-22T10:00:04.581Z,935.15
2023-05-22T10:01:04.703Z,935.11
2023-05-22T10:02:05.778Z,935.1
2023-05-22T10:03:06.269Z,935.11
2023-05-22T10:04:07.333Z,935.05
2023-05-22T10:05:07.816Z,935.08
2023-05-22T10:06:08.344Z,935.11
2023-05-22T10:07:09.456Z,935.11
2023-05-22T10:08:10.498Z,935.12
2023-05-22T10:09:10.853Z,935.09
2023-05-22T10:10:11.595Z,935.08
2023-05-22T10:11:12.314Z,935.09
2023-05-22T10:12:13.251Z,935.06
2023-05-22T10:13:13.969Z,935.09
2023-05-22T10:14:15.027Z,935.1
2023-05-22T10:15:15.730Z,935.1
2023-05-22T10:16:16.642Z,935.08
2023-05-22T10:17:17.120Z,935.07
2023-05-22T10:18:17.646Z,935.06
2023-05-22T10:19:18.559Z,935.08
2023-05-22T10:20:19.266Z,935.07
2023-05-22T10:21:19.961Z,935.04
2023-05-22T10:22:20.896Z,935.04
2023-05-22T10:23:21.941Z,935.04
2023-05-22T10:24:22.353Z,935.04
2023-05-22T10:25:23.284Z,935.03
2023-05-22T10:26:24.072Z,935.03
2023-05-22T10:27:25.096Z,935
2023-05-22T10:28:26.050Z,934.99
2023-05-22T10:29:26.245Z,934.94
2023-05-22T10:30:27.179Z,934.91
2023-05-22T10:31:27.543Z,934.94
2023-05-22T10:32:28.177Z,934.89
2023-05-22T10:33:28.368Z,934.95
2023-05-22T10:34:29.372Z,934.94
2023-05-22T10:35:29.652Z,934.94
2023-05-22T10:36:30.204Z,934.98
2023-05-22T10:37:31.037Z,934.96
2023-05-22T10:38:31.318Z,934.91
2023-05-22T10:39:32.187Z,934.93
2023-05-22T10:40:33.091Z,934.91
2023-05-22T10:41:33.440Z,934.91
2023-05-22T10:42:34.264Z,934.87
2023-05-22T10:43:35.141Z,934.85
2023-05-22T10:44:35.567Z,934.82
2023-05-22T10:45:36.521Z,934.86
2023-05-22T10:46:37.175Z,934.87
2023-05-22T10:47:37.890Z,934.87
2023-05-22T10:48:37.971Z,934.89
2023-05-22T10:49:38.923Z,934.86
2023-05-22T10:50:39.474Z,934.84
2023-05-22T10:51:40.075Z,934.82
2023-05-22T10:52:40.857Z,934.87
2023-05-22T10:53:41.177Z,934.85
2023-05-22T10:54:42.174Z,934.84
2023-05-22T10:55:42.895Z,934.87
2023-05-22T10:56:43.865Z,934.86
2023-05-22T10:57:44.616Z,934.86
2023-05-22T10:58:45.438Z,934.85
2023-05-22T10:59:45.695Z,934.83
2023-05-22T11:00:46.500Z,934.82
2023-05-22T11:01:47.530Z,934.79
2023-05-22T11:02:48.506Z,934.77
2023-05-22T11:03:49.055Z,934.77
2023-05-22T11:04:50.121Z,934.74
2023-05-22T11:05:50.343Z,934.76
2023-05-22T11:06:51.262Z,934.72
2023-05-22T11:07:52.267Z,934.74
2023-05-22T11:08:53.269Z,934.71
2023-05-22T11:09:54.329Z,934.69
2023-05-22T11:10:54.941Z,934.7
2023-05-22T11:11:55.949Z,934.75
2023-05-22T11:12:56.478Z,934.72
2023-05-22T11:13:56.894Z,934.72
2023-05-22T11:14:57.434Z,934.72
2023-05-22T11:15:58.239Z,934.74
2023-05-22T11:16:58.935Z,934.77
2023-05-22T11:17:59.954Z,934.75
2023-05-22T11:19:04.683Z,934.71
2023-05-22T11:20:01.989Z,934.73
2023-05-22T11:21:02.020Z,934.73
2023-05-22T11:22:02.713Z,934.72
2023-05-22T11:23:03.496Z,934.72
2023-05-22T11:24:03.618Z,934.7
2023-05-22T11:25:04.364Z,934.72
2023-05-22T11:26:05.140Z,934.68
2023-05-22T11:27:05.900Z,934.68
2023-05-22T11:28:06.658Z,934.67
2023-05-22T11:29:07.361Z,934.65
2023-05-22T11:30:08.039Z,934.63
2023-05-22T11:31:08.871Z,934.64
2023-05-22T11:32:09.092Z,934.65
2023-05-22T11:33:09.501Z,934.69
2023-05-22T11:34:10.489Z,934.67
2023-05-22T11:35:11.060Z,934.67
2023-05-22T11:36:12.081Z,934.65
2023-05-22T11:37:12.214Z,934.62
2023-05-22T11:38:13.162Z,934.61
2023-05-22T11:39:13.882Z,934.59
2023-05-22T11:40:14.727Z,934.66
2023-05-22T11:41:14.739Z,934.61
2023-05-22T11:42:15.044Z,934.6
2023-05-22T11:43:16.034Z,934.52
2023-05-22T11:44:16.732Z,934.55
2023-05-22T11:45:16.956Z,934.53
2023-05-22T11:46:17.824Z,934.53
2023-05-22T11:47:18.373Z,934.52
2023-05-22T11:48:19.436Z,934.59
2023-05-22T11:49:20.195Z,934.56
2023-05-22T11:50:29.842Z,934.58
2023-05-22T11:51:21.908Z,934.57
2023-05-22T11:52:22.522Z,934.55
2023-05-22T11:53:23.451Z,934.55
2023-05-22T11:54:24.410Z,934.53
2023-05-22T11:55:25.406Z,934.51
2023-05-22T11:56:25.541Z,934.56
2023-05-22T11:57:26.264Z,934.59
2023-05-22T11:58:27.076Z,934.58
2023-05-22T11:59:27.996Z,934.57
2023-05-22T12:00:28.184Z,934.58
2023-05-22T12:01:28.981Z,934.54
2023-05-22T12:02:29.577Z,934.54
2023-05-22T12:03:30.182Z,934.57
2023-05-22T12:04:30.761Z,934.55
2023-05-22T12:05:31.761Z,934.53
2023-05-22T12:06:32.587Z,934.58
2023-05-22T12:07:32.933Z,934.54
2023-05-22T12:08:33.874Z,934.58
2023-05-22T12:09:34.616Z,934.54
2023-05-22T12:10:34.912Z,934.51
2023-05-22T12:11:35.267Z,934.54
2023-05-22T12:12:35.679Z,934.57
2023-05-22T12:13:36.621Z,934.5
2023-05-22T12:14:37.538Z,934.53
2023-05-22T12:15:38.559Z,934.51
2023-05-22T12:16:39.261Z,934.51
2023-05-22T12:17:39.855Z,934.52
2023-05-22T12:18:40.253Z,934.53
2023-05-22T12:19:41.155Z,934.53
2023-05-22T12:20:41.477Z,934.5
2023-05-22T12:21:42.298Z,934.48
2023-05-22T12:22:43.485Z,934.48
2023-05-22T12:23:43.630Z,934.51
2023-05-22T12:24:43.772Z,934.48
2023-05-22T12:25:44.271Z,934.45
2023-05-22T12:26:45.191Z,934.42
2023-05-22T12:27:46.109Z,934.43
2023-05-22T12:28:46.312Z,934.4
2023-05-22T12:29:46.847Z,934.4
2023-05-22T12:30:47.101Z,934.43
2023-05-22T12:31:47.781Z,934.47
2023-05-22T12:32:48.229Z,934.47
2023-05-22T12:33:48.375Z,934.45
2023-05-22T12:34:48.920Z,934.42
2023-05-22T12:35:49.845Z,934.4
2023-05-22T12:36:50.757Z,934.41
2023-05-22T12:37:51.721Z,934.43
2023-05-22T12:38:52.689Z,934.4